Vega, Texas
Current Conditions -  °F | °C
As of 11:35 PM on Tuesday 25 Nov 2014 (Local Time) from KHRX Reporting Station
Clear Clear  
Wind Chill: 30°   Ceiling: Unl
Heat Index: 37°   Visibility: 10mi
Dew Point: 19°   Wind: 12mph
Humidity: 46%   Direction: 230°SW
Pressure: 30.02"   Gusts: NA
Location:  35.24°N, 102.43°W
Report Text: KHRX 260535Z AUTO 23010KT 10SM CLR 03/M07 A3002 RMK AO2 T00301075
Loading
Personal Weather Stations






























Interactive Weather Map New forecast layout! Learn more

10-Day Weather Forecast

Advertisements
Track Severe Weather on mobile